Terminal Aerodrome Forecast
Issued by NWS

Current Version | Previous Version | Text Only | Print | Product List | Glossary On
Versions: 1 2 3 4 5 6 7 8 9 10 11 12 13 14 15 16 17 18
630
FTUS44 KJAN 291729
TAFGTR
TAF
KGTR 291729Z 2918/3018 24008KT P6SM VCTS BKN025CB BKN100
     FM291900 25007KT P6SM VCTS BKN035CB
     FM300000 22003KT P6SM SCT040
     FM301400 27004KT P6SM BKN250=

USA.gov is the U.S. government's official web portal to all federal, state and local government web resources and services.